createdAt,value
2022-10-11T00:00:21.244Z,6.15
2022-10-11T00:02:25.216Z,4.68
2022-10-11T00:04:27.784Z,5.70
2022-10-11T00:08:30.597Z,4.70
2022-10-11T00:10:34.180Z,5.68
2022-10-11T00:12:36.482Z,4.45
2022-10-11T00:14:38.692Z,4.70
2022-10-11T00:16:40.127Z,7.05
2022-10-11T00:20:43.615Z,4.53
2022-10-11T00:22:45.152Z,5.15
2022-10-11T00:24:46.636Z,3.85
2022-10-11T00:26:49.499Z,5.55
2022-10-11T00:28:52.522Z,5.35
2022-10-11T00:30:54.229Z,7.70
2022-10-11T00:32:55.729Z,5.75
2022-10-11T00:34:57.205Z,6.38
2022-10-11T00:39:00.019Z,7.50
2022-10-11T00:41:01.539Z,6.68
2022-10-11T00:43:04.344Z,7.53
2022-10-11T00:45:39.373Z,7.10
2022-10-11T00:47:41.284Z,7.15
2022-10-11T00:49:45.817Z,5.63
2022-10-11T00:51:52.224Z,6.50
2022-10-11T00:53:54.059Z,7.53
2022-10-11T00:56:01.495Z,7.25
2022-10-11T01:00:09.434Z,6.70
2022-10-11T01:02:11.551Z,7.47
2022-10-11T01:04:13.105Z,7.15
2022-10-11T01:06:14.730Z,7.28
2022-10-11T01:08:16.300Z,6.82
2022-10-11T01:10:17.998Z,8.65
2022-10-11T01:12:23.304Z,5.35
2022-10-11T01:14:58.787Z,12.77
2022-10-11T01:17:10.302Z,8.70
2022-10-11T01:19:35.247Z,8.23
2022-10-11T01:21:46.615Z,5.70
2022-10-11T01:24:10.442Z,10.50
2022-10-11T01:26:34.037Z,9.55
2022-10-11T01:28:46.462Z,6.15
2022-10-11T01:30:51.422Z,7.82
2022-10-11T01:33:06.853Z,9.25
2022-10-11T01:35:14.794Z,9.13
2022-10-11T01:37:24.316Z,8.43
2022-10-11T01:39:31.403Z,7.60
2022-10-11T01:41:38.293Z,7.25
2022-10-11T01:43:42.234Z,11.05
2022-10-11T01:45:45.242Z,8.32
2022-10-11T01:47:48.032Z,8.77
2022-10-11T01:49:54.036Z,7.13
2022-10-11T01:51:59.787Z,10.10
2022-10-11T01:55:04.062Z,14.57
2022-10-11T01:57:30.030Z,9.48
2022-10-11T01:59:47.533Z,8.32
2022-10-11T02:01:55.961Z,11.57
2022-10-11T02:04:05.430Z,7.88
2022-10-11T02:06:12.394Z,7.78
2022-10-11T02:08:23.888Z,8.60
2022-10-11T02:10:34.292Z,7.72
2022-10-11T02:12:41.984Z,9.13
2022-10-11T02:14:47.630Z,8.35
2022-10-11T02:16:53.411Z,7.90
2022-10-11T02:18:56.307Z,8.85
2022-10-11T02:21:01.326Z,11.48
2022-10-11T02:23:07.939Z,5.13
2022-10-11T02:25:13.018Z,9.25
2022-10-11T02:27:17.324Z,9.27
2022-10-11T02:29:22.910Z,7.38
2022-10-11T02:31:25.571Z,9.25
2022-10-11T02:33:33.761Z,13.65
2022-10-11T02:35:41.360Z,11.75
2022-10-11T02:37:51.431Z,10.40
2022-10-11T02:39:55.113Z,7.72
2022-10-11T02:42:01.989Z,10.43
2022-10-11T02:44:08.381Z,11.27
2022-10-11T02:46:10.927Z,8.25
2022-10-11T02:48:13.066Z,9.20
2022-10-11T02:50:15.609Z,8.85
2022-10-11T02:52:17.223Z,6.10
2022-10-11T02:54:20.080Z,13.93
2022-10-11T02:56:21.647Z,10.45
2022-10-11T02:58:23.969Z,7.22
2022-10-11T03:00:25.531Z,9.20
2022-10-11T03:02:27.096Z,9.45
2022-10-11T03:04:28.647Z,7.90
2022-10-11T03:06:30.135Z,10.18
2022-10-11T03:10:34.321Z,7.38
2022-10-11T03:12:35.828Z,10.82
2022-10-11T03:16:38.606Z,11.95
2022-10-11T03:20:41.485Z,12.98
2022-10-11T03:24:44.405Z,13.90
2022-10-11T03:26:47.421Z,11.13
2022-10-11T03:28:48.993Z,13.98
2022-10-11T03:30:51.751Z,11.13
2022-10-11T03:32:53.327Z,13.00
2022-10-11T03:34:54.806Z,11.38
2022-10-11T03:38:59.204Z,10.15
2022-10-11T03:41:00.742Z,10.32
2022-10-11T03:43:03.825Z,10.82
2022-10-11T03:45:07.084Z,13.15
2022-10-11T03:47:08.787Z,11.75
2022-10-11T03:49:10.309Z,13.00
2022-10-11T03:53:13.175Z,12.93
2022-10-11T03:57:16.033Z,14.80
2022-10-11T04:01:20.752Z,8.80
2022-10-11T04:03:22.284Z,9.48
2022-10-11T04:07:25.153Z,9.75
2022-10-11T04:09:26.728Z,11.27
2022-10-11T04:11:28.193Z,17.10
2022-10-11T04:15:32.369Z,9.98
2022-10-11T04:17:34.191Z,8.50
2022-10-11T04:19:35.705Z,13.38
2022-10-11T04:23:38.457Z,9.55
2022-10-11T04:27:41.421Z,16.50
2022-10-11T04:29:42.945Z,11.85
2022-10-11T04:33:47.323Z,14.55
2022-10-11T04:37:50.174Z,20.35
2022-10-11T04:41:52.985Z,14.27
2022-10-11T04:45:55.861Z,10.20
2022-10-11T04:50:00.069Z,11.43
2022-10-11T04:54:03.008Z,10.13
2022-10-11T04:56:06.943Z,13.80
2022-10-11T04:58:08.770Z,11.80
2022-10-11T05:00:11.541Z,9.18
2022-10-11T05:02:13.115Z,12.38
2022-10-11T05:04:15.989Z,8.98
2022-10-11T05:06:17.574Z,10.20
2022-10-11T05:08:19.181Z,8.25
2022-10-11T05:10:20.638Z,9.65
2022-10-11T05:14:23.470Z,12.55
2022-10-11T05:18:26.346Z,10.68
2022-10-11T05:20:29.174Z,8.05
2022-10-11T05:22:30.668Z,10.82
2022-10-11T05:26:33.473Z,11.43
2022-10-11T05:30:36.334Z,7.95
2022-10-11T05:34:39.258Z,9.27
2022-10-11T05:38:43.552Z,9.63
2022-10-11T05:40:45.512Z,7.78
2022-10-11T05:42:46.989Z,11.75
2022-10-11T05:46:49.767Z,9.77
2022-10-11T05:50:52.958Z,10.65
2022-10-11T05:52:55.889Z,8.77
2022-10-11T05:54:57.420Z,7.78
2022-10-11T05:59:02.582Z,9.32
2022-10-11T06:01:04.388Z,14.15
2022-10-11T06:03:07.227Z,13.43
2022-10-11T06:05:09.468Z,8.65
2022-10-11T06:07:10.981Z,10.93
2022-10-11T06:11:17.308Z,11.95
2022-10-11T06:13:18.770Z,10.90
2022-10-11T06:17:21.621Z,8.05
2022-10-11T06:21:25.077Z,11.63
2022-10-11T06:23:26.883Z,8.25
2022-10-11T06:25:29.763Z,11.45
2022-10-11T06:27:31.543Z,11.00
2022-10-11T06:31:53.012Z,9.52
2022-10-11T06:36:00.868Z,13.02
2022-10-11T06:38:02.352Z,10.55
2022-10-11T06:42:06.888Z,8.75
2022-10-11T06:44:14.054Z,12.45
2022-10-11T06:46:16.233Z,12.57
2022-10-11T06:48:17.713Z,10.20
2022-10-11T06:52:40.587Z,9.93
2022-10-11T06:54:44.878Z,11.63
2022-10-11T06:56:46.678Z,9.95
2022-10-11T07:00:50.867Z,7.10
2022-10-11T07:04:53.695Z,10.95
2022-10-11T07:06:55.171Z,11.38
2022-10-11T07:11:01.753Z,10.68
2022-10-11T07:13:03.442Z,12.38
2022-10-11T07:15:07.483Z,9.43
2022-10-11T07:17:08.949Z,10.90
2022-10-11T07:21:13.802Z,7.57
2022-10-11T07:23:15.445Z,9.57
2022-10-11T07:25:17.145Z,10.52
2022-10-11T07:27:18.689Z,10.98
2022-10-11T07:29:20.208Z,11.48
2022-10-11T07:31:24.519Z,15.75
2022-10-11T07:33:26.061Z,7.45
2022-10-11T07:35:27.620Z,11.02
2022-10-11T07:37:29.077Z,8.27
2022-10-11T07:41:31.851Z,7.95
2022-10-11T07:45:37.272Z,9.15
2022-10-11T07:47:40.162Z,11.73
2022-10-11T07:49:41.609Z,8.73
2022-10-11T07:53:46.212Z,16.95
2022-10-11T07:55:47.681Z,12.23
2022-10-11T07:59:50.537Z,7.82
2022-10-11T08:01:52.065Z,6.95
2022-10-11T08:03:55.322Z,7.63
2022-10-11T08:05:59.802Z,8.32
2022-10-11T08:08:01.290Z,10.20
2022-10-11T08:12:04.862Z,7.70
2022-10-11T08:14:07.961Z,9.90
2022-10-11T08:16:11.041Z,8.20
2022-10-11T08:18:12.538Z,11.23
2022-10-11T08:20:15.561Z,14.93
2022-10-11T08:22:17.359Z,10.50
2022-10-11T08:24:18.850Z,9.98
2022-10-11T08:26:20.353Z,13.23
2022-10-11T08:28:21.873Z,6.95
2022-10-11T08:30:23.710Z,12.48
2022-10-11T08:32:25.233Z,7.15
2022-10-11T08:34:26.803Z,6.55
2022-10-11T08:36:29.847Z,8.55
2022-10-11T08:38:31.735Z,8.23
2022-10-11T08:40:35.366Z,7.85
2022-10-11T08:42:43.503Z,12.55
2022-10-11T08:45:10.071Z,11.35
2022-10-11T08:47:19.805Z,9.05
2022-10-11T08:49:27.206Z,8.73
2022-10-11T08:51:35.287Z,11.02
2022-10-11T08:53:44.836Z,15.85
2022-10-11T08:55:50.821Z,7.50
2022-10-11T08:57:54.980Z,10.15
2022-10-11T08:59:58.691Z,6.72
2022-10-11T09:02:12.216Z,14.45
2022-10-11T09:04:14.595Z,12.02
2022-10-11T09:06:25.979Z,7.20
2022-10-11T09:08:38.769Z,8.70
2022-10-11T09:11:00.014Z,7.95
2022-10-11T09:13:12.614Z,6.93
2022-10-11T09:15:25.314Z,9.95
2022-10-11T09:17:41.552Z,5.90
2022-10-11T09:19:59.879Z,9.32
2022-10-11T09:22:08.340Z,7.18
2022-10-11T09:24:30.705Z,7.88
2022-10-11T09:26:39.930Z,6.15
2022-10-11T09:28:56.209Z,7.70
2022-10-11T09:31:01.648Z,6.65
2022-10-11T09:33:13.068Z,7.47
2022-10-11T09:35:17.101Z,9.48
2022-10-11T09:37:24.352Z,8.02
2022-10-11T09:39:31.633Z,9.88
2022-10-11T09:41:40.115Z,7.88
2022-10-11T09:43:45.949Z,8.35
2022-10-11T09:45:49.653Z,6.85
2022-10-11T09:47:54.727Z,8.65
2022-10-11T09:50:00.298Z,9.65
2022-10-11T09:52:04.404Z,6.15
2022-10-11T09:54:06.524Z,9.88
2022-10-11T09:56:09.859Z,7.15
2022-10-11T09:58:27.165Z,6.38
2022-10-11T10:00:29.783Z,11.85
2022-10-11T10:02:40.084Z,7.18
2022-10-11T10:04:54.714Z,11.77
2022-10-11T10:07:10.132Z,6.90
2022-10-11T10:09:35.682Z,18.10
2022-10-11T10:11:38.635Z,13.20
2022-10-11T10:13:48.297Z,6.53
2022-10-11T10:15:52.014Z,5.15
2022-10-11T10:17:53.822Z,7.45
2022-10-11T10:19:56.451Z,8.18
2022-10-11T10:21:58.002Z,8.70
2022-10-11T10:24:01.731Z,6.95
2022-10-11T10:26:13.120Z,8.85
2022-10-11T10:28:22.009Z,8.43
2022-10-11T10:30:23.597Z,8.32
2022-10-11T10:32:30.700Z,7.20
2022-10-11T10:34:36.482Z,6.25
2022-10-11T10:36:43.224Z,9.18
2022-10-11T10:38:52.426Z,10.80
2022-10-11T10:40:56.279Z,7.88
2022-10-11T10:42:58.185Z,6.15
2022-10-11T10:45:01.492Z,9.27
2022-10-11T10:47:10.344Z,10.23
2022-10-11T10:51:48.096Z,6.53
2022-10-11T10:53:59.176Z,8.32
2022-10-11T10:56:06.567Z,8.65
2022-10-11T11:00:24.713Z,8.65
2022-10-11T11:02:40.631Z,9.10
2022-10-11T11:04:50.394Z,7.97
2022-10-11T11:06:57.844Z,7.65
2022-10-11T11:09:13.634Z,10.98
2022-10-11T11:11:35.421Z,6.80
2022-10-11T11:13:45.695Z,6.95
2022-10-11T11:15:55.768Z,9.30
2022-10-11T11:18:13.759Z,9.38
2022-10-11T11:20:38.962Z,6.05
2022-10-11T11:22:49.968Z,8.55
2022-10-11T11:25:03.631Z,11.65
2022-10-11T11:27:16.126Z,8.52
2022-10-11T11:29:29.891Z,10.73
2022-10-11T11:31:46.578Z,6.70
2022-10-11T11:33:59.465Z,9.18
2022-10-11T11:36:05.855Z,9.30
2022-10-11T11:38:14.569Z,6.63
2022-10-11T11:40:20.811Z,7.45
2022-10-11T11:42:26.575Z,8.70
2022-10-11T11:44:32.469Z,9.50
2022-10-11T11:46:40.639Z,5.70
2022-10-11T11:48:43.486Z,6.07
2022-10-11T11:50:53.136Z,7.07
2022-10-11T11:52:57.823Z,8.07
2022-10-11T11:55:08.796Z,6.45
2022-10-11T11:57:20.484Z,9.38
2022-10-11T11:59:27.563Z,6.75
2022-10-11T12:01:36.444Z,9.07
2022-10-11T12:03:42.597Z,7.43
2022-10-11T12:06:22.405Z,10.05
2022-10-11T12:08:27.242Z,7.70
2022-10-11T12:10:33.760Z,6.18
2022-10-11T12:12:37.303Z,6.00
2022-10-11T12:14:40.708Z,11.02
2022-10-11T12:17:07.896Z,5.95
2022-10-11T12:19:14.017Z,7.05
2022-10-11T12:21:22.182Z,9.75
2022-10-11T12:23:45.639Z,9.80
2022-10-11T12:26:18.171Z,6.75
2022-10-11T12:28:46.509Z,7.32
2022-10-11T12:31:03.167Z,12.52
2022-10-11T12:33:14.134Z,7.55
2022-10-11T12:36:05.547Z,4.53
2022-10-11T12:38:18.315Z,7.30
2022-10-11T12:40:37.703Z,7.60
2022-10-11T12:42:45.600Z,7.15
2022-10-11T12:45:20.752Z,11.00
2022-10-11T12:47:37.202Z,36.25
2022-10-11T12:49:55.817Z,30.77
2022-10-11T12:52:00.517Z,15.05
2022-10-11T12:54:33.314Z,16.48
2022-10-11T12:56:48.559Z,7.60
2022-10-11T12:58:50.122Z,11.15
2022-10-11T13:01:18.073Z,11.18
2022-10-11T13:03:32.351Z,5.10
2022-10-11T13:05:45.057Z,11.13
2022-10-11T13:07:47.461Z,9.65
2022-10-11T13:09:53.854Z,8.02
2022-10-11T13:11:59.295Z,7.40
2022-10-11T13:14:07.856Z,7.55
2022-10-11T13:16:13.996Z,6.70
2022-10-11T13:18:16.849Z,6.30
2022-10-11T13:20:21.380Z,8.00
2022-10-11T13:22:23.365Z,6.05
2022-10-11T13:24:26.450Z,9.52
2022-10-11T13:26:31.229Z,5.00
2022-10-11T13:28:36.299Z,7.70
2022-10-11T13:30:42.323Z,9.88
2022-10-11T13:32:44.324Z,9.15
2022-10-11T13:34:48.764Z,6.07
2022-10-11T13:36:55.609Z,8.95
2022-10-11T13:38:59.139Z,6.72
2022-10-11T13:41:05.627Z,9.70
2022-10-11T13:43:08.653Z,5.95
2022-10-11T13:45:13.380Z,5.32
2022-10-11T13:47:17.927Z,6.53
2022-10-11T13:49:31.795Z,5.82
2022-10-11T13:51:35.669Z,9.27
2022-10-11T13:53:37.157Z,8.23
2022-10-11T13:55:49.943Z,10.32
2022-10-11T13:57:52.180Z,5.70
2022-10-11T13:59:55.371Z,4.25
2022-10-11T14:01:59.224Z,6.88
2022-10-11T14:04:03.584Z,7.03
2022-10-11T14:06:05.659Z,7.13
2022-10-11T14:08:21.562Z,4.43
2022-10-11T14:10:23.905Z,4.15
2022-10-11T14:12:29.754Z,7.93
2022-10-11T14:14:42.534Z,7.05
2022-10-11T14:16:54.674Z,7.28
2022-10-11T14:19:08.038Z,8.70
2022-10-11T14:21:27.813Z,8.63
2022-10-11T14:23:29.313Z,10.27
2022-10-11T14:25:30.941Z,7.45
2022-10-11T14:27:32.471Z,5.97
2022-10-11T14:29:35.881Z,7.57
2022-10-11T14:31:41.466Z,8.98
2022-10-11T14:33:45.099Z,6.05
2022-10-11T14:35:46.565Z,4.53
2022-10-11T14:37:48.084Z,4.20
2022-10-11T14:39:49.786Z,7.72
2022-10-11T14:41:52.443Z,7.35
2022-10-11T14:43:53.968Z,9.85
2022-10-11T14:45:55.429Z,14.60
2022-10-11T14:47:56.922Z,7.05
2022-10-11T14:49:59.783Z,6.18
2022-10-11T14:52:02.404Z,5.00
2022-10-11T14:54:04.184Z,8.52
2022-10-11T14:56:07.008Z,7.63
2022-10-11T14:58:11.086Z,7.13
2022-10-11T15:00:17.361Z,6.75
2022-10-11T15:02:18.909Z,5.85
2022-10-11T15:04:21.162Z,6.53
2022-10-11T15:06:27.047Z,6.05
2022-10-11T15:08:28.710Z,8.18
2022-10-11T15:10:34.107Z,6.28
2022-10-11T15:12:35.594Z,6.90
2022-10-11T15:14:37.079Z,7.28
2022-10-11T15:16:39.055Z,6.65
2022-10-11T15:18:40.901Z,10.48
2022-10-11T15:20:44.637Z,12.18
2022-10-11T15:22:48.013Z,8.75
2022-10-11T15:24:51.813Z,5.80
2022-10-11T15:26:53.453Z,4.47
2022-10-11T15:28:57.381Z,6.22
2022-10-11T15:30:59.831Z,5.15
2022-10-11T15:33:01.677Z,7.65
2022-10-11T15:35:03.193Z,6.63
2022-10-11T15:37:04.678Z,8.25
2022-10-11T15:39:26.722Z,6.75
2022-10-11T15:41:28.390Z,8.27
2022-10-11T15:43:30.243Z,6.90
2022-10-11T15:45:31.784Z,7.55
2022-10-11T15:47:33.328Z,8.13
2022-10-11T15:49:34.813Z,9.93
2022-10-11T15:51:36.350Z,6.93
2022-10-11T15:53:37.844Z,6.25
2022-10-11T15:55:42.393Z,6.63
2022-10-11T15:57:43.935Z,8.77
2022-10-11T15:59:45.480Z,7.10
2022-10-11T16:01:47.070Z,7.13
2022-10-11T16:03:49.732Z,9.18
2022-10-11T16:05:51.922Z,7.75
2022-10-11T16:07:54.039Z,6.90
2022-10-11T16:09:55.682Z,11.73
2022-10-11T16:11:58.557Z,10.88
2022-10-11T16:14:00.060Z,8.35
2022-10-11T16:16:02.478Z,9.80
2022-10-11T16:18:04.282Z,16.05
2022-10-11T16:20:07.411Z,14.45
2022-10-11T16:22:08.902Z,15.25
2022-10-11T16:24:10.358Z,14.25
2022-10-11T16:26:13.721Z,12.10
2022-10-11T16:28:16.634Z,16.60
2022-10-11T16:30:19.585Z,8.70
2022-10-11T16:32:21.266Z,17.00
2022-10-11T16:34:22.999Z,13.50
2022-10-11T16:36:24.523Z,18.95
2022-10-11T16:38:26.151Z,15.73
2022-10-11T16:40:28.137Z,15.13
2022-10-11T16:42:29.711Z,14.23
2022-10-11T16:44:32.578Z,12.30
2022-10-11T16:46:34.480Z,17.20
2022-10-11T16:48:35.971Z,17.90
2022-10-11T16:50:39.672Z,11.32
2022-10-11T16:52:41.438Z,10.10
2022-10-11T16:54:43.747Z,11.23
2022-10-11T16:56:45.374Z,11.00
2022-10-11T16:58:47.108Z,11.48
2022-10-11T17:00:49.983Z,12.27
2022-10-11T17:02:51.510Z,9.52
2022-10-11T17:04:53.422Z,12.07
2022-10-11T17:06:54.928Z,14.52
2022-10-11T17:08:56.711Z,13.20
2022-10-11T17:10:58.246Z,11.15
2022-10-11T17:12:59.707Z,12.68
2022-10-11T17:15:01.194Z,13.07
2022-10-11T17:17:05.754Z,8.35
2022-10-11T17:19:09.691Z,10.55
2022-10-11T17:21:14.039Z,14.48
2022-10-11T17:23:15.623Z,10.55
2022-10-11T17:25:17.227Z,14.43
2022-10-11T17:27:18.724Z,13.82
2022-10-11T17:29:20.546Z,11.40
2022-10-11T17:31:23.169Z,14.27
2022-10-11T17:33:27.016Z,15.57
2022-10-11T17:35:31.143Z,19.17
2022-10-11T17:37:33.638Z,20.40
2022-10-11T17:39:35.109Z,14.98
2022-10-11T17:41:36.770Z,17.45
2022-10-11T17:43:38.780Z,15.43
2022-10-11T17:45:40.246Z,15.80
2022-10-11T17:47:41.776Z,9.80
2022-10-11T17:49:44.615Z,8.52
2022-10-11T17:51:46.097Z,14.15
2022-10-11T17:53:48.511Z,12.40
2022-10-11T17:55:49.978Z,11.82
2022-10-11T17:57:51.492Z,16.08
2022-10-11T17:59:53.104Z,13.48
2022-10-11T18:01:54.749Z,18.50
2022-10-11T18:03:57.885Z,23.83
2022-10-11T18:06:02.540Z,23.70
2022-10-11T18:08:04.100Z,21.20
2022-10-11T18:10:06.554Z,21.90
2022-10-11T18:12:08.351Z,19.10
2022-10-11T18:14:09.891Z,21.52
2022-10-11T18:16:12.177Z,17.70
2022-10-11T18:18:13.871Z,18.38
2022-10-11T18:20:15.491Z,17.58
2022-10-11T18:22:18.295Z,17.40
2022-10-11T18:24:19.869Z,21.17
2022-10-11T18:26:29.397Z,19.48
2022-10-11T18:28:32.034Z,26.50
2022-10-11T18:30:33.570Z,15.75
2022-10-11T18:32:35.523Z,14.75
2022-10-11T18:34:37.019Z,22.73
2022-10-11T18:36:39.005Z,19.98
2022-10-11T18:38:43.466Z,23.75
2022-10-11T18:40:47.192Z,90.15
2022-10-11T18:42:48.856Z,37.53
2022-10-11T18:44:50.368Z,40.30
2022-10-11T18:46:51.874Z,48.60
2022-10-11T18:48:55.499Z,61.97
2022-10-11T18:51:01.920Z,29.20
2022-10-11T18:55:11.299Z,14.23
2022-10-11T18:57:12.825Z,13.77
2022-10-11T18:59:14.768Z,14.15
2022-10-11T19:01:18.871Z,15.75
2022-10-11T19:03:20.481Z,15.68
2022-10-11T19:05:22.038Z,14.35
2022-10-11T19:07:23.749Z,11.82
2022-10-11T19:09:25.848Z,14.50
2022-10-11T19:11:31.083Z,19.23
2022-10-11T19:13:32.789Z,14.35
2022-10-11T19:15:35.281Z,26.73
2022-10-11T19:17:36.772Z,17.00
2022-10-11T19:21:40.388Z,12.90
2022-10-11T19:23:43.945Z,16.13
2022-10-11T19:25:45.411Z,14.75
2022-10-11T19:29:49.544Z,15.27
2022-10-11T19:33:53.505Z,18.38
2022-10-11T19:35:55.336Z,14.05
2022-10-11T19:37:56.829Z,16.55
2022-10-11T19:39:58.456Z,15.13
2022-10-11T19:41:59.907Z,23.70
2022-10-11T19:46:06.204Z,22.58
2022-10-11T19:48:07.823Z,17.77
2022-10-11T19:50:09.843Z,15.85
2022-10-11T19:52:11.257Z,16.42
2022-10-11T19:56:16.907Z,14.95
2022-10-11T19:58:18.413Z,16.85
2022-10-11T20:00:21.267Z,20.05
2022-10-11T20:02:22.770Z,20.33
2022-10-11T20:06:45.760Z,21.85
2022-10-11T20:08:55.931Z,19.45
2022-10-11T20:11:08.605Z,21.45
2022-10-11T20:13:10.073Z,19.40
2022-10-11T20:17:14.550Z,20.67
2022-10-11T20:19:16.435Z,20.55
2022-10-11T20:21:20.130Z,16.02
2022-10-11T20:23:27.472Z,20.05
2022-10-11T20:25:29.270Z,17.23
2022-10-11T20:29:32.627Z,15.52
2022-10-11T20:31:35.966Z,18.35
2022-10-11T20:33:38.813Z,13.43
2022-10-11T20:35:40.347Z,17.17
2022-10-11T20:37:41.775Z,18.67
2022-10-11T20:41:44.553Z,14.73
2022-10-11T20:45:57.871Z,17.52
2022-10-11T20:47:59.319Z,14.73
2022-10-11T20:52:03.624Z,11.88
2022-10-11T20:54:05.591Z,15.90
2022-10-11T20:56:08.255Z,14.65
2022-10-11T20:58:09.741Z,13.68
2022-10-11T21:02:18.003Z,30.38
2022-10-11T21:04:20.585Z,17.85
2022-10-11T21:06:23.439Z,19.15
2022-10-11T21:08:24.995Z,25.52
2022-10-11T21:10:26.541Z,18.70
2022-10-11T21:12:27.997Z,15.38
2022-10-11T21:16:31.560Z,15.75
2022-10-11T21:18:33.014Z,16.35
2022-10-11T21:22:39.970Z,17.42
2022-10-11T21:24:41.500Z,16.75
2022-10-11T21:26:43.117Z,17.33
2022-10-11T21:28:45.601Z,13.50
2022-10-11T21:30:47.051Z,13.57
2022-10-11T21:34:49.867Z,17.50
2022-10-11T21:38:54.259Z,24.27
2022-10-11T21:40:55.757Z,14.48
2022-10-11T21:44:58.504Z,14.00
2022-10-11T21:49:09.170Z,14.38
2022-10-11T21:53:19.344Z,15.75
2022-10-11T21:55:22.150Z,15.02
2022-10-11T21:57:23.608Z,19.10
2022-10-11T22:01:26.606Z,15.50
2022-10-11T22:03:28.116Z,15.13
2022-10-11T22:07:30.818Z,18.33
2022-10-11T22:09:32.238Z,15.27
2022-10-11T22:11:35.321Z,16.88
2022-10-11T22:13:37.389Z,18.00
2022-10-11T22:15:39.294Z,15.63
2022-10-11T22:17:40.819Z,15.52
2022-10-11T22:21:45.187Z,14.95
2022-10-11T22:23:51.053Z,17.10
2022-10-11T22:25:52.486Z,14.80
2022-10-11T22:29:56.644Z,17.55
2022-10-11T22:31:58.090Z,15.00
2022-10-11T22:36:04.172Z,18.10
2022-10-11T22:38:05.932Z,21.08
2022-10-11T22:40:08.488Z,16.15
2022-10-11T22:42:10.028Z,16.45
2022-10-11T22:46:14.367Z,17.15
2022-10-11T22:50:17.512Z,21.70
2022-10-11T22:52:19.014Z,14.00
2022-10-11T22:56:21.847Z,17.17
2022-10-11T23:00:26.128Z,13.70
2022-10-11T23:02:27.576Z,17.27
2022-10-11T23:06:30.411Z,14.48
2022-10-11T23:10:33.165Z,22.50
2022-10-11T23:14:35.963Z,17.88
2022-10-11T23:16:38.807Z,25.20
2022-10-11T23:18:40.620Z,18.85
2022-10-11T23:20:42.069Z,16.45
2022-10-11T23:24:44.950Z,11.93
2022-10-11T23:26:46.417Z,15.43
2022-10-11T23:30:49.324Z,17.05
2022-10-11T23:34:53.421Z,15.32
2022-10-11T23:38:58.447Z,13.23
2022-10-11T23:40:59.920Z,16.02
2022-10-11T23:45:02.892Z,14.07
2022-10-11T23:47:04.351Z,14.60
2022-10-11T23:51:08.773Z,12.63
2022-10-11T23:53:10.847Z,13.98
2022-10-11T23:55:12.639Z,12.13
2022-10-11T23:57:14.279Z,16.40
2022-10-11T23:59:15.693Z,13.38
